Česky Dansk Deutsch English Español Suomi Français Magyar Italiano Nederlands norsk Polski Português svenska Türkçe

 

Het Weer

Chon Buri (Thailand)

01:00, 19 augustus 2016 (GMT)

NWNNE
WE
SWSSE
Home            
Chon Buri Don Muang Prachin Buri Rayong Phetchaburi Hua Hin Chanthaburi Kanchanaburi Prachuap Khirikhan Nakhon Ratchasima Mergui Nakhon Sawan Chaiyaphum Dawei Siemreap Chumphon Phitsanulok Khon Kaen Roi Et Tak Mae Sot Ranong Loei

Om een weerknop op uw website of weblog te plaatsen, copieer onderstaande code en plak die in uw pagina. In het eerste vakje staat HTML-code, in het tweede vakje UBB-code.


Add to Google

Details

Wind speed:2 bf, 6 kn, 3.1 m/s, 6.9 miles/h, 11.1 km/h
Wind direction:S, 190° - WSW, 250°
Visibility:Greater than 10000 m, 10 km, 32800 ft, 6.2 miles
Clouds:Ein wenig bewölkt at 2000 ft, 610 m
Temperature:30°C, 86°F
Gefühlte Temperatur:34°C, 93°F
Dew-point:23°C, 73°F
Atmospheric pressure:1003 hPa, 752.3 mmHg, 29.62 inHg, 0.990 atm
Relative humidity:66.2 %
METAR:VTBS 190100Z 21006KT 190V250 9999 FEW020 30/23 Q1003 NOSIG

Snelkoppelingen

Actuele weersinformatie van de hele wereld. Voeg locaties toe met het plus (+) symbool. Deze snelkoppelingen kunnen worden toegevoegd aan Google.

Lid van de Technetium groep

website free tracking
StatCounter NetStat W3C Validator

08-08-2020 04:33:11
astro.technetium.be money.technetium.be phote.technetium.be tafeltennistafel.technetium.be www.ligfiets.net